Grand Island, Oregon
Current Conditions -  °F | °C
As of 2:53 AM on Sunday 23 Nov 2014 (Local Time) from KMMV Reporting Station
Broken Clouds Broken Clouds  
Wind Chill: 42°   Ceiling: 6000
Heat Index: 44°   Visibility: 10mi
Dew Point: 42°   Wind: 5mph
Humidity: 93%   Direction: 350°N
Pressure: 30.3"   Gusts: NA
Location:  45.1812°N, 123.076°W
Report Text: KMMV 231053Z AUTO 35004KT 10SM FEW031 SCT050 BKN060 07/06 A3030 RMK AO2 SLP259 T00670056 $
Loading
Personal Weather Stations






























Interactive Weather Map New forecast layout! Learn more

10-Day Weather Forecast

Advertisements
Track Severe Weather on mobile